createdAt,value
2019-06-20T00:01:17.539Z,2.00
2019-06-20T00:03:48.473Z,2.20
2019-06-20T00:06:18.711Z,2.00
2019-06-20T00:08:49.428Z,2.00
2019-06-20T00:11:19.667Z,2.00
2019-06-20T00:13:49.903Z,3.00
2019-06-20T00:16:20.437Z,2.00
2019-06-20T00:18:50.934Z,3.00
2019-06-20T00:21:22.070Z,1.00
2019-06-20T00:23:52.918Z,2.00
2019-06-20T00:26:23.259Z,2.20
2019-06-20T00:28:53.382Z,1.80
2019-06-20T00:31:23.686Z,2.40
2019-06-20T00:33:54.224Z,1.80
2019-06-20T00:36:24.683Z,2.00
2019-06-20T00:38:55.624Z,1.00
2019-06-20T00:41:26.217Z,0.80
2019-06-20T00:43:56.965Z,2.00
2019-06-20T00:46:27.461Z,0.40
2019-06-20T00:48:57.587Z,1.00
2019-06-20T00:51:27.808Z,0.60
2019-06-20T00:53:58.042Z,0.00
2019-06-20T00:56:28.304Z,0.80
2019-06-20T00:58:58.884Z,0.00
2019-06-20T01:01:28.992Z,0.40
2019-06-20T01:03:59.210Z,0.00
2019-06-20T01:06:31.390Z,0.00
2019-06-20T01:09:01.961Z,0.00
2019-06-20T01:11:32.037Z,0.80
2019-06-20T01:14:02.499Z,1.00
2019-06-20T01:16:33.780Z,2.00
2019-06-20T01:19:04.325Z,0.00
2019-06-20T01:21:34.489Z,0.20
2019-06-20T01:24:05.294Z,0.00
2019-06-20T01:26:35.529Z,0.00
2019-06-20T01:29:06.741Z,1.60
2019-06-20T01:31:37.499Z,0.00
2019-06-20T01:34:07.729Z,1.00
2019-06-20T01:36:38.073Z,0.40
2019-06-20T01:39:08.890Z,0.00
2019-06-20T01:41:38.788Z,0.00
2019-06-20T01:44:09.330Z,0.00
2019-06-20T01:46:39.432Z,0.00
2019-06-20T01:49:09.768Z,0.00
2019-06-20T01:51:39.925Z,1.40
2019-06-20T01:54:10.208Z,0.00
2019-06-20T01:56:40.432Z,0.00
2019-06-20T01:59:10.960Z,0.00
2019-06-20T02:01:41.692Z,0.20
2019-06-20T02:04:12.561Z,0.00
2019-06-20T02:06:42.854Z,0.20
2019-06-20T02:09:13.583Z,0.00
2019-06-20T02:11:44.209Z,0.40
2019-06-20T02:14:14.741Z,0.00
2019-06-20T02:16:45.266Z,0.00
2019-06-20T02:19:15.394Z,1.20
2019-06-20T02:21:45.634Z,0.00
2019-06-20T02:24:15.944Z,0.00
2019-06-20T02:26:46.081Z,0.60
2019-06-20T02:29:16.292Z,1.00
2019-06-20T02:31:47.168Z,0.00
2019-06-20T02:34:17.339Z,1.00
2019-06-20T02:36:47.591Z,0.20
2019-06-20T02:39:17.887Z,0.20
2019-06-20T02:41:48.995Z,0.00
2019-06-20T02:44:29.875Z,0.00
2019-06-20T02:46:51.295Z,1.00
2019-06-20T02:49:21.743Z,0.00
2019-06-20T02:51:52.268Z,0.00
2019-06-20T02:54:22.479Z,0.00
2019-06-20T02:56:52.715Z,0.00
2019-06-20T02:59:22.930Z,2.60
2019-06-20T03:01:53.541Z,0.80
2019-06-20T03:04:24.382Z,1.00
2019-06-20T03:06:54.926Z,0.00
2019-06-20T03:09:24.998Z,1.00
2019-06-20T03:11:55.666Z,1.00
2019-06-20T03:14:25.822Z,2.00
2019-06-20T03:16:56.020Z,1.00
2019-06-20T03:19:26.549Z,1.00
2019-06-20T03:21:57.176Z,0.00
2019-06-20T03:24:27.286Z,1.00
2019-06-20T03:26:57.509Z,0.20
2019-06-20T03:29:27.870Z,0.00
2019-06-20T03:31:58.057Z,0.00
2019-06-20T03:34:28.176Z,0.80
2019-06-20T03:36:58.421Z,0.00
2019-06-20T03:39:28.667Z,0.00
2019-06-20T03:41:59.246Z,0.60
2019-06-20T03:44:29.972Z,1.00
2019-06-20T03:47:00.510Z,0.80
2019-06-20T03:49:31.156Z,0.80
2019-06-20T03:52:01.549Z,1.80
2019-06-20T03:54:32.397Z,0.00
2019-06-20T03:57:02.843Z,0.60
2019-06-20T03:59:33.764Z,0.00
2019-06-20T04:02:04.684Z,0.00
2019-06-20T04:04:34.919Z,0.80
2019-06-20T04:07:05.152Z,0.60
2019-06-20T04:09:35.301Z,0.00
2019-06-20T04:12:05.934Z,0.00
2019-06-20T04:14:36.443Z,2.60
2019-06-20T04:17:06.869Z,1.60
2019-06-20T04:19:37.485Z,0.40
2019-06-20T04:22:08.020Z,0.40
2019-06-20T04:24:38.149Z,1.00
2019-06-20T04:27:08.762Z,2.00
2019-06-20T04:29:39.307Z,2.60
2019-06-20T04:32:09.820Z,3.60
2019-06-20T04:34:40.069Z,0.80
2019-06-20T04:37:10.191Z,0.00
2019-06-20T04:39:40.590Z,2.60
2019-06-20T04:42:11.016Z,2.00
2019-06-20T04:44:41.747Z,1.60
2019-06-20T04:47:13.060Z,2.00
2019-06-20T04:49:43.458Z,4.00
2019-06-20T04:52:13.755Z,1.00
2019-06-20T04:54:43.886Z,1.60
2019-06-20T04:57:14.190Z,1.80
2019-06-20T04:59:45.322Z,4.20
2019-06-20T05:02:17.077Z,1.80
2019-06-20T05:04:47.220Z,0.40
2019-06-20T05:07:21.531Z,1.80
2019-06-20T05:09:51.711Z,1.00
2019-06-20T05:12:22.076Z,3.40
2019-06-20T05:14:52.606Z,2.40
2019-06-20T05:17:23.640Z,1.60
2019-06-20T05:19:53.883Z,1.80
2019-06-20T05:22:23.992Z,2.00
2019-06-20T05:24:54.222Z,2.00
2019-06-20T05:27:24.744Z,1.00
2019-06-20T05:29:54.980Z,2.00
2019-06-20T05:32:25.834Z,1.00
2019-06-20T05:34:56.028Z,1.00
2019-06-20T05:37:26.271Z,2.00
2019-06-20T05:39:57.160Z,0.80
2019-06-20T05:42:27.699Z,1.00
2019-06-20T05:44:57.859Z,3.00
2019-06-20T05:47:28.142Z,3.00
2019-06-20T05:49:58.261Z,1.00
2019-06-20T05:52:28.590Z,1.60
2019-06-20T05:54:58.699Z,1.60
2019-06-20T05:57:29.532Z,1.20
2019-06-20T05:59:59.771Z,2.00
2019-06-20T06:02:30.097Z,1.80
2019-06-20T06:05:00.206Z,1.00
2019-06-20T06:07:31.148Z,2.00
2019-06-20T06:10:04.038Z,1.00
2019-06-20T06:12:33.339Z,2.00
2019-06-20T06:15:04.285Z,1.80
2019-06-20T06:17:34.506Z,1.40
2019-06-20T06:20:10.032Z,0.40
2019-06-20T06:22:40.564Z,1.60
2019-06-20T06:25:12.824Z,1.00
2019-06-20T06:27:42.982Z,1.00
2019-06-20T06:30:13.269Z,1.80
2019-06-20T06:32:43.508Z,1.00
2019-06-20T06:35:13.719Z,1.00
2019-06-20T06:37:43.924Z,1.00
2019-06-20T06:40:15.709Z,2.00
2019-06-20T06:42:46.228Z,1.80
2019-06-20T06:45:16.362Z,1.00
2019-06-20T06:47:46.620Z,1.20
2019-06-20T06:50:17.001Z,1.80
2019-06-20T06:52:48.108Z,1.20
2019-06-20T06:55:18.251Z,1.80
2019-06-20T06:57:48.510Z,1.60
2019-06-20T07:00:19.410Z,1.00
2019-06-20T07:02:50.142Z,1.00
2019-06-20T07:05:20.914Z,1.00
2019-06-20T07:07:51.508Z,0.00
2019-06-20T07:10:22.827Z,1.00
2019-06-20T07:12:53.495Z,1.00
2019-06-20T07:15:23.848Z,1.00
2019-06-20T07:17:54.756Z,1.40
2019-06-20T07:20:25.394Z,1.00
2019-06-20T07:22:55.918Z,1.00
2019-06-20T07:25:26.148Z,1.00
2019-06-20T07:27:56.271Z,1.80
2019-06-20T07:30:26.568Z,0.80
2019-06-20T07:32:56.687Z,0.20
2019-06-20T07:35:26.954Z,1.00
2019-06-20T07:37:57.257Z,1.20
2019-06-20T07:40:27.472Z,0.00
2019-06-20T07:42:58.193Z,2.20
2019-06-20T07:45:28.834Z,1.60
2019-06-20T07:47:59.057Z,1.00
2019-06-20T07:50:29.201Z,0.20
2019-06-20T07:53:02.434Z,0.80
2019-06-20T07:55:31.861Z,2.00
2019-06-20T07:58:02.353Z,1.00
2019-06-20T08:00:32.912Z,0.00
2019-06-20T08:03:03.756Z,3.00
2019-06-20T08:05:34.197Z,0.00
2019-06-20T08:08:05.316Z,1.20
2019-06-20T08:10:35.637Z,1.60
2019-06-20T08:13:06.186Z,0.60
2019-06-20T08:15:36.699Z,1.00
2019-06-20T08:18:06.926Z,0.00
2019-06-20T08:20:37.084Z,0.40
2019-06-20T08:23:07.890Z,0.20
2019-06-20T08:25:38.428Z,1.60
2019-06-20T08:28:08.619Z,1.00
2019-06-20T08:30:39.598Z,1.00
2019-06-20T08:33:12.178Z,0.80
2019-06-20T08:35:41.869Z,0.80
2019-06-20T08:38:12.282Z,0.20
2019-06-20T08:40:42.599Z,0.00
2019-06-20T08:43:13.136Z,1.00
2019-06-20T08:45:44.583Z,1.00
2019-06-20T08:48:14.723Z,1.00
2019-06-20T08:50:44.840Z,0.00
2019-06-20T08:53:15.550Z,0.60
2019-06-20T08:55:45.783Z,0.40
2019-06-20T08:58:16.116Z,0.00
2019-06-20T09:00:46.446Z,1.00
2019-06-20T09:03:16.745Z,0.00
2019-06-20T09:05:46.915Z,1.20
2019-06-20T09:08:18.106Z,0.00
2019-06-20T09:10:48.851Z,1.00
2019-06-20T09:13:19.222Z,1.00
2019-06-20T09:15:49.311Z,1.00
2019-06-20T09:18:19.338Z,2.60
2019-06-20T09:20:49.458Z,0.80
2019-06-20T09:23:20.544Z,1.80
2019-06-20T09:25:50.901Z,2.80
2019-06-20T09:28:22.971Z,1.20
2019-06-20T09:30:53.908Z,2.00
2019-06-20T09:33:25.242Z,1.80
2019-06-20T09:35:55.595Z,2.00
2019-06-20T09:38:26.295Z,1.00
2019-06-20T09:40:56.911Z,1.00
2019-06-20T09:43:27.980Z,1.20
2019-06-20T09:45:59.028Z,1.60
2019-06-20T09:48:29.648Z,1.40
2019-06-20T09:50:59.850Z,2.00
2019-06-20T09:53:30.086Z,2.80
2019-06-20T09:56:00.748Z,4.00
2019-06-20T09:58:31.185Z,6.20
2019-06-20T10:01:01.639Z,0.80
2019-06-20T10:03:31.956Z,4.60
2019-06-20T10:06:12.789Z,5.00
2019-06-20T10:08:34.503Z,4.80
2019-06-20T10:11:05.837Z,7.60
2019-06-20T10:13:36.093Z,4.40
2019-06-20T10:16:06.699Z,9.20
2019-06-20T10:18:36.932Z,5.40
2019-06-20T10:21:07.447Z,7.00
2019-06-20T10:23:37.559Z,3.60
2019-06-20T10:26:07.812Z,6.40
2019-06-20T10:28:39.016Z,8.20
2019-06-20T10:31:10.067Z,9.20
2019-06-20T10:33:40.317Z,7.80
2019-06-20T10:36:10.532Z,6.60
2019-06-20T10:38:41.440Z,7.00
2019-06-20T10:41:11.984Z,6.40
2019-06-20T10:43:43.009Z,4.60
2019-06-20T10:46:14.471Z,7.00
2019-06-20T10:48:45.979Z,7.00
2019-06-20T10:51:33.410Z,7.20
2019-06-20T10:54:04.277Z,7.60
2019-06-20T10:56:35.017Z,7.60
2019-06-20T10:59:05.529Z,7.60
2019-06-20T11:01:35.768Z,9.20
2019-06-20T11:04:06.714Z,9.20
2019-06-20T11:06:36.705Z,13.40
2019-06-20T11:09:09.007Z,10.80
2019-06-20T11:11:40.132Z,11.60
2019-06-20T11:14:11.127Z,10.60
2019-06-20T11:16:42.141Z,8.80
2019-06-20T11:19:13.264Z,7.00
2019-06-20T11:21:43.434Z,6.60
2019-06-20T11:24:13.608Z,9.00
2019-06-20T11:26:45.890Z,8.20
2019-06-20T11:29:15.867Z,10.20
2019-06-20T11:31:47.799Z,6.20
2019-06-20T11:34:18.266Z,5.60
2019-06-20T11:36:48.432Z,9.20
2019-06-20T11:39:18.739Z,6.00
2019-06-20T11:41:48.779Z,11.80
2019-06-20T11:44:18.916Z,12.40
2019-06-20T11:46:49.127Z,10.20
2019-06-20T11:49:19.794Z,7.60
2019-06-20T11:51:50.237Z,7.80
2019-06-20T11:54:20.473Z,8.80
2019-06-20T11:56:53.591Z,6.80
2019-06-20T11:59:24.082Z,6.00
2019-06-20T12:01:54.411Z,6.00
2019-06-20T12:04:24.633Z,3.00
2019-06-20T12:06:54.846Z,8.80
2019-06-20T12:09:25.078Z,4.40
2019-06-20T12:11:55.588Z,5.20
2019-06-20T12:14:25.877Z,5.00
2019-06-20T12:16:55.958Z,4.80
2019-06-20T12:19:26.269Z,6.20
2019-06-20T12:21:56.386Z,6.20
2019-06-20T12:24:26.457Z,10.80
2019-06-20T12:26:56.770Z,12.20
2019-06-20T12:29:26.916Z,11.80
2019-06-20T12:31:57.210Z,10.80
2019-06-20T12:34:27.581Z,11.00
2019-06-20T12:36:57.894Z,14.80
2019-06-20T12:39:28.122Z,15.40
2019-06-20T12:41:58.317Z,13.20
2019-06-20T12:44:28.678Z,10.20
2019-06-20T12:46:58.767Z,14.60
2019-06-20T12:49:29.185Z,18.80
2019-06-20T12:51:59.223Z,13.00
2019-06-20T12:54:30.283Z,12.00
2019-06-20T12:57:01.509Z,12.60
2019-06-20T12:59:33.046Z,10.80
2019-06-20T13:02:03.697Z,10.20
2019-06-20T13:04:33.927Z,12.60
2019-06-20T13:07:04.640Z,13.60
2019-06-20T13:09:35.743Z,13.00
2019-06-20T13:12:06.276Z,13.00
2019-06-20T13:14:36.415Z,10.60
2019-06-20T13:17:06.775Z,10.60
2019-06-20T13:19:38.621Z,6.20
2019-06-20T13:22:08.784Z,8.00
2019-06-20T13:24:39.727Z,8.60
2019-06-20T13:27:10.751Z,5.00
2019-06-20T13:29:41.087Z,6.80
2019-06-20T13:32:11.170Z,5.00
2019-06-20T13:34:42.917Z,5.80
2019-06-20T13:37:15.537Z,3.80
2019-06-20T13:39:45.748Z,5.00
2019-06-20T13:42:16.249Z,2.00
2019-06-20T13:44:46.800Z,5.20
2019-06-20T13:47:17.129Z,5.00
2019-06-20T13:49:47.703Z,3.20
2019-06-20T13:52:18.614Z,5.20
2019-06-20T13:54:49.924Z,5.00
2019-06-20T13:57:21.159Z,5.60
2019-06-20T13:59:52.820Z,5.00
2019-06-20T14:02:23.750Z,5.00
2019-06-20T14:04:54.512Z,3.60
2019-06-20T14:07:24.727Z,3.40
2019-06-20T14:09:55.568Z,2.80
2019-06-20T14:12:25.797Z,5.00
2019-06-20T14:14:56.061Z,3.80
2019-06-20T14:17:26.626Z,3.00
2019-06-20T14:19:57.154Z,5.20
2019-06-20T14:22:27.913Z,1.80
2019-06-20T14:24:58.235Z,6.00
2019-06-20T14:27:28.776Z,5.40
2019-06-20T14:29:59.536Z,8.50
2019-06-20T14:32:29.728Z,6.40
2019-06-20T14:35:00.611Z,5.00
2019-06-20T14:37:30.895Z,5.75
2019-06-20T14:40:01.717Z,6.60
2019-06-20T14:42:31.815Z,6.75
2019-06-20T14:45:02.497Z,10.20
2019-06-20T14:47:32.969Z,13.60
2019-06-20T14:50:03.818Z,10.60
2019-06-20T14:52:34.658Z,12.60
2019-06-20T14:55:09.548Z,11.40
2019-06-20T14:57:40.373Z,13.00
2019-06-20T15:00:12.301Z,14.80
2019-06-20T15:02:45.091Z,18.00
2019-06-20T15:05:18.613Z,19.20
2019-06-20T15:07:49.528Z,13.00
2019-06-20T15:10:21.099Z,23.20
2019-06-20T15:12:52.326Z,13.20
2019-06-20T15:15:23.316Z,13.60
2019-06-20T15:17:55.644Z,20.60
2019-06-20T15:20:25.317Z,15.40
2019-06-20T15:22:56.634Z,13.80
2019-06-20T15:25:27.346Z,17.40
2019-06-20T15:27:57.648Z,18.20
2019-06-20T15:30:28.304Z,16.20
2019-06-20T15:33:09.313Z,13.80
2019-06-20T15:35:30.441Z,9.40
2019-06-20T15:38:00.501Z,15.80
2019-06-20T15:40:31.134Z,17.80
2019-06-20T15:43:01.860Z,14.60
2019-06-20T15:45:31.908Z,17.80
2019-06-20T15:48:02.301Z,13.20
2019-06-20T15:50:32.642Z,13.00
2019-06-20T15:53:03.274Z,14.60
2019-06-20T15:55:33.297Z,14.80
2019-06-20T15:58:03.863Z,11.80
2019-06-20T16:00:34.129Z,17.40
2019-06-20T16:03:09.841Z,12.00
2019-06-20T16:05:36.966Z,19.20
2019-06-20T16:08:07.151Z,12.40
2019-06-20T16:10:38.022Z,13.00
2019-06-20T16:13:08.056Z,11.20
2019-06-20T16:15:38.238Z,16.80
2019-06-20T16:18:09.346Z,15.00
2019-06-20T16:20:39.638Z,18.80
2019-06-20T16:23:09.807Z,18.80
2019-06-20T16:25:39.954Z,18.60
2019-06-20T16:28:10.190Z,16.00
2019-06-20T16:30:40.705Z,20.80
2019-06-20T16:33:24.159Z,19.60
2019-06-20T16:35:43.016Z,19.20
2019-06-20T16:38:13.588Z,18.20
2019-06-20T16:40:50.592Z,19.40
2019-06-20T16:43:20.819Z,21.20
2019-06-20T16:45:51.244Z,14.20
2019-06-20T16:48:21.942Z,17.80
2019-06-20T16:50:52.395Z,21.60
2019-06-20T16:53:22.477Z,15.00
2019-06-20T16:55:52.457Z,18.20
2019-06-20T16:58:23.058Z,16.80
2019-06-20T17:00:53.189Z,16.00
2019-06-20T17:03:23.413Z,18.20
2019-06-20T17:05:53.636Z,20.00
2019-06-20T17:08:23.852Z,13.20
2019-06-20T17:10:54.091Z,13.00
2019-06-20T17:13:24.276Z,18.20
2019-06-20T17:15:54.624Z,18.40
2019-06-20T17:18:24.851Z,17.80
2019-06-20T17:20:55.348Z,18.60
2019-06-20T17:23:25.482Z,21.00
2019-06-20T17:25:56.086Z,14.40
2019-06-20T17:28:26.540Z,14.20
2019-06-20T17:30:56.821Z,16.80
2019-06-20T17:33:27.404Z,11.80
2019-06-20T17:35:57.510Z,13.60
2019-06-20T17:38:28.047Z,11.80
2019-06-20T17:40:58.487Z,8.40
2019-06-20T17:43:28.885Z,15.00
2019-06-20T17:45:59.019Z,11.60
2019-06-20T17:48:29.250Z,10.60
2019-06-20T17:51:00.245Z,6.60
2019-06-20T17:53:30.820Z,11.20
2019-06-20T17:56:01.243Z,10.60
2019-06-20T17:58:31.376Z,12.00
2019-06-20T18:01:02.354Z,11.80
2019-06-20T18:03:33.158Z,8.40
2019-06-20T18:06:03.718Z,10.00
2019-06-20T18:08:33.891Z,11.40
2019-06-20T18:11:04.838Z,8.20
2019-06-20T18:13:35.305Z,8.40
2019-06-20T18:16:05.739Z,6.80
2019-06-20T18:18:37.031Z,5.20
2019-06-20T18:21:07.192Z,9.20
2019-06-20T18:23:37.821Z,9.00
2019-06-20T18:26:07.779Z,12.80
2019-06-20T18:28:38.262Z,8.20
2019-06-20T18:31:08.589Z,9.60
2019-06-20T18:33:38.949Z,11.20
2019-06-20T18:36:09.129Z,6.00
2019-06-20T18:38:39.350Z,4.80
2019-06-20T18:41:09.495Z,7.80
2019-06-20T18:43:40.179Z,8.80
2019-06-20T18:46:10.399Z,6.00
2019-06-20T18:48:40.714Z,12.00
2019-06-20T18:51:11.084Z,8.40
2019-06-20T18:53:41.271Z,7.40
2019-06-20T18:56:11.767Z,12.60
2019-06-20T18:58:42.436Z,8.20
2019-06-20T19:01:13.171Z,8.60
2019-06-20T19:03:43.284Z,12.00
2019-06-20T19:06:13.712Z,7.40
2019-06-20T19:08:44.734Z,10.00
2019-06-20T19:11:14.952Z,10.20
2019-06-20T19:13:45.814Z,8.80
2019-06-20T19:16:16.044Z,9.00
2019-06-20T19:18:46.527Z,11.80
2019-06-20T19:21:17.485Z,9.40
2019-06-20T19:23:47.876Z,17.20
2019-06-20T19:26:18.422Z,14.80
2019-06-20T19:28:48.949Z,14.80
2019-06-20T19:31:20.444Z,15.00
2019-06-20T19:33:52.091Z,12.40
2019-06-20T19:36:22.519Z,16.40
2019-06-20T19:38:52.918Z,14.40
2019-06-20T19:41:23.061Z,13.40
2019-06-20T19:43:54.615Z,9.00
2019-06-20T19:46:24.854Z,7.40
2019-06-20T19:48:54.823Z,10.20
2019-06-20T19:51:24.927Z,15.60
2019-06-20T19:53:55.451Z,10.60
2019-06-20T19:56:25.998Z,13.80
2019-06-20T19:58:56.248Z,10.40
2019-06-20T20:01:26.803Z,9.80
2019-06-20T20:03:57.872Z,11.00
2019-06-20T20:06:28.198Z,9.00
2019-06-20T20:08:58.622Z,11.40
2019-06-20T20:11:28.780Z,10.80
2019-06-20T20:13:58.981Z,10.00
2019-06-20T20:16:29.188Z,14.40
2019-06-20T20:18:59.545Z,11.40
2019-06-20T20:21:29.755Z,15.00
2019-06-20T20:24:00.032Z,5.80
2019-06-20T20:26:30.551Z,10.80
2019-06-20T20:29:01.364Z,9.20
2019-06-20T20:31:31.159Z,12.20
2019-06-20T20:34:01.871Z,8.80
2019-06-20T20:36:31.888Z,10.20
2019-06-20T20:39:02.380Z,10.40
2019-06-20T20:41:32.748Z,12.00
2019-06-20T20:44:03.157Z,9.80
2019-06-20T20:46:33.416Z,12.40
2019-06-20T20:49:04.191Z,9.20
2019-06-20T20:51:34.280Z,11.40
2019-06-20T20:54:05.379Z,14.20
2019-06-20T20:56:35.613Z,11.60
2019-06-20T20:59:06.123Z,15.00
2019-06-20T21:01:36.264Z,10.20
2019-06-20T21:04:06.369Z,9.60
2019-06-20T21:06:36.404Z,10.80
2019-06-20T21:09:07.663Z,10.20
2019-06-20T21:11:38.168Z,12.80
2019-06-20T21:14:08.410Z,13.60
2019-06-20T21:16:38.523Z,14.20
2019-06-20T21:19:08.374Z,14.00
2019-06-20T21:21:38.353Z,14.00
2019-06-20T21:24:08.569Z,14.00
2019-06-20T21:26:48.896Z,14.60
2019-06-20T21:29:10.342Z,13.60
2019-06-20T21:31:40.463Z,10.00
2019-06-20T21:34:10.817Z,13.40
2019-06-20T21:36:41.291Z,12.00
2019-06-20T21:39:11.821Z,13.20
2019-06-20T21:41:41.969Z,17.80
2019-06-20T21:44:12.352Z,12.00
2019-06-20T21:46:43.392Z,15.00
2019-06-20T21:49:13.869Z,15.00
2019-06-20T21:51:44.851Z,11.20
2019-06-20T21:54:15.306Z,15.00
2019-06-20T21:56:45.831Z,15.20
2019-06-20T21:59:16.748Z,8.80
2019-06-20T22:01:48.535Z,15.20
2019-06-20T22:04:19.215Z,9.00
2019-06-20T22:06:49.555Z,8.20
2019-06-20T22:09:20.136Z,8.60
2019-06-20T22:11:50.713Z,9.00
2019-06-20T22:14:21.225Z,8.00
2019-06-20T22:16:51.506Z,9.00
2019-06-20T22:19:21.815Z,11.00
2019-06-20T22:21:52.036Z,15.20
2019-06-20T22:24:23.113Z,10.60
2019-06-20T22:26:53.452Z,5.80
2019-06-20T22:29:23.545Z,14.80
2019-06-20T22:31:53.580Z,11.60
2019-06-20T22:34:24.064Z,11.40
2019-06-20T22:36:54.287Z,10.00
2019-06-20T22:39:24.968Z,8.40
2019-06-20T22:41:55.059Z,12.00
2019-06-20T22:44:25.922Z,8.60
2019-06-20T22:46:56.427Z,21.60
2019-06-20T22:49:27.529Z,12.80
2019-06-20T22:51:59.972Z,7.40
2019-06-20T22:54:30.051Z,13.40
2019-06-20T22:57:00.303Z,11.80
2019-06-20T22:59:30.816Z,12.40
2019-06-20T23:02:01.401Z,9.00
2019-06-20T23:04:31.695Z,9.60
2019-06-20T23:07:02.128Z,9.80
2019-06-20T23:09:32.114Z,11.20
2019-06-20T23:12:02.373Z,8.80
2019-06-20T23:14:32.427Z,15.80
2019-06-20T23:17:02.713Z,12.40
2019-06-20T23:19:33.453Z,7.00
2019-06-20T23:22:04.797Z,13.20
2019-06-20T23:24:35.416Z,8.40
2019-06-20T23:27:05.561Z,8.20
2019-06-20T23:29:36.163Z,8.00
2019-06-20T23:32:06.493Z,5.20
2019-06-20T23:34:36.519Z,7.80
2019-06-20T23:37:12.685Z,9.60
2019-06-20T23:39:38.917Z,4.00
2019-06-20T23:42:09.000Z,7.00
2019-06-20T23:44:39.250Z,6.80
2019-06-20T23:47:09.497Z,8.40
2019-06-20T23:49:39.698Z,6.60
2019-06-20T23:52:11.639Z,1.00
2019-06-20T23:54:42.701Z,4.40
2019-06-20T23:57:13.442Z,3.60
2019-06-20T23:59:43.750Z,3.00
